sensor_id;sensor_type;location;lat;lon;timestamp;P1;durP1;ratioP1;P2;durP2;ratioP2
4268;SDS011;2148;48.554;7.834;2022-08-26T00:00:05;5.60;;;4.20;;
4268;SDS011;2148;48.554;7.834;2022-08-26T00:02:31;5.00;;;4.50;;
4268;SDS011;2148;48.554;7.834;2022-08-26T00:04:56;5.70;;;5.20;;
4268;SDS011;2148;48.554;7.834;2022-08-26T00:07:21;5.07;;;4.57;;
4268;SDS011;2148;48.554;7.834;2022-08-26T00:09:47;5.23;;;4.23;;
4268;SDS011;2148;48.554;7.834;2022-08-26T00:12:12;4.80;;;4.40;;
4268;SDS011;2148;48.554;7.834;2022-08-26T00:14:37;4.70;;;4.30;;
4268;SDS011;2148;48.554;7.834;2022-08-26T00:17:03;5.33;;;4.83;;
4268;SDS011;2148;48.554;7.834;2022-08-26T00:19:28;5.07;;;4.67;;
4268;SDS011;2148;48.554;7.834;2022-08-26T00:21:53;4.97;;;4.57;;
4268;SDS011;2148;48.554;7.834;2022-08-26T00:24:19;4.53;;;4.10;;
4268;SDS011;2148;48.554;7.834;2022-08-26T00:26:44;5.03;;;4.63;;
4268;SDS011;2148;48.554;7.834;2022-08-26T00:29:10;6.07;;;5.53;;
4268;SDS011;2148;48.554;7.834;2022-08-26T00:31:36;6.07;;;5.43;;
4268;SDS011;2148;48.554;7.834;2022-08-26T00:34:01;6.00;;;5.50;;
4268;SDS011;2148;48.554;7.834;2022-08-26T00:36:26;7.63;;;5.50;;
4268;SDS011;2148;48.554;7.834;2022-08-26T00:38:52;5.87;;;5.37;;
4268;SDS011;2148;48.554;7.834;2022-08-26T00:41:18;8.37;;;5.23;;
4268;SDS011;2148;48.554;7.834;2022-08-26T00:43:43;7.67;;;4.80;;
4268;SDS011;2148;48.554;7.834;2022-08-26T00:46:09;7.20;;;5.20;;
4268;SDS011;2148;48.554;7.834;2022-08-26T00:48:38;5.67;;;5.17;;
4268;SDS011;2148;48.554;7.834;2022-08-26T00:51:13;7.07;;;5.40;;
4268;SDS011;2148;48.554;7.834;2022-08-26T00:53:42;5.33;;;4.83;;
4268;SDS011;2148;48.554;7.834;2022-08-26T00:56:20;7.00;;;5.10;;
4268;SDS011;2148;48.554;7.834;2022-08-26T00:58:49;5.03;;;4.53;;
4268;SDS011;2148;48.554;7.834;2022-08-26T01:01:14;5.80;;;4.63;;
4268;SDS011;2148;48.554;7.834;2022-08-26T01:03:41;5.50;;;4.87;;
4268;SDS011;2148;48.554;7.834;2022-08-26T01:06:07;6.17;;;4.43;;
4268;SDS011;2148;48.554;7.834;2022-08-26T01:08:33;6.07;;;4.80;;
4268;SDS011;2148;48.554;7.834;2022-08-26T01:10:59;5.50;;;4.97;;
4268;SDS011;2148;48.554;7.834;2022-08-26T01:13:27;5.03;;;4.63;;
4268;SDS011;2148;48.554;7.834;2022-08-26T01:15:55;5.67;;;4.67;;
4268;SDS011;2148;48.554;7.834;2022-08-26T01:18:21;5.27;;;4.47;;
4268;SDS011;2148;48.554;7.834;2022-08-26T01:23:28;6.20;;;5.13;;
4268;SDS011;2148;48.554;7.834;2022-08-26T01:25:58;5.53;;;4.97;;
4268;SDS011;2148;48.554;7.834;2022-08-26T01:28:28;6.83;;;5.00;;
4268;SDS011;2148;48.554;7.834;2022-08-26T01:30:55;5.40;;;4.90;;
4268;SDS011;2148;48.554;7.834;2022-08-26T01:33:23;5.77;;;5.13;;
4268;SDS011;2148;48.554;7.834;2022-08-26T01:35:52;5.23;;;4.73;;
4268;SDS011;2148;48.554;7.834;2022-08-26T01:38:18;5.37;;;4.87;;
4268;SDS011;2148;48.554;7.834;2022-08-26T01:40:43;5.87;;;5.30;;
4268;SDS011;2148;48.554;7.834;2022-08-26T01:43:10;5.60;;;4.50;;
4268;SDS011;2148;48.554;7.834;2022-08-26T01:45:40;5.37;;;4.87;;
4268;SDS011;2148;48.554;7.834;2022-08-26T01:48:07;7.07;;;5.10;;
4268;SDS011;2148;48.554;7.834;2022-08-26T01:50:35;5.93;;;5.33;;
4268;SDS011;2148;48.554;7.834;2022-08-26T01:53:02;6.00;;;5.37;;
4268;SDS011;2148;48.554;7.834;2022-08-26T01:55:30;6.13;;;5.60;;
4268;SDS011;2148;48.554;7.834;2022-08-26T01:57:56;6.37;;;5.10;;
4268;SDS011;2148;48.554;7.834;2022-08-26T02:00:23;6.43;;;5.03;;
4268;SDS011;2148;48.554;7.834;2022-08-26T02:02:49;6.53;;;5.80;;
4268;SDS011;2148;48.554;7.834;2022-08-26T02:05:36;6.63;;;5.93;;
4268;SDS011;2148;48.554;7.834;2022-08-26T02:08:02;5.80;;;5.10;;
4268;SDS011;2148;48.554;7.834;2022-08-26T02:10:28;5.40;;;4.90;;
4268;SDS011;2148;48.554;7.834;2022-08-26T02:12:53;7.43;;;5.23;;
4268;SDS011;2148;48.554;7.834;2022-08-26T02:15:18;6.73;;;5.23;;
4268;SDS011;2148;48.554;7.834;2022-08-26T02:17:44;5.93;;;5.30;;
4268;SDS011;2148;48.554;7.834;2022-08-26T02:20:12;6.37;;;5.20;;
4268;SDS011;2148;48.554;7.834;2022-08-26T02:22:40;6.60;;;4.97;;
4268;SDS011;2148;48.554;7.834;2022-08-26T02:25:09;5.50;;;5.10;;
4268;SDS011;2148;48.554;7.834;2022-08-26T02:28:01;5.40;;;4.90;;
4268;SDS011;2148;48.554;7.834;2022-08-26T02:30:28;5.97;;;5.37;;
4268;SDS011;2148;48.554;7.834;2022-08-26T02:32:57;6.37;;;5.13;;
4268;SDS011;2148;48.554;7.834;2022-08-26T02:35:23;9.00;;;5.27;;
4268;SDS011;2148;48.554;7.834;2022-08-26T02:37:49;5.60;;;5.17;;
4268;SDS011;2148;48.554;7.834;2022-08-26T02:40:15;5.80;;;5.30;;
4268;SDS011;2148;48.554;7.834;2022-08-26T02:42:42;6.20;;;5.60;;
4268;SDS011;2148;48.554;7.834;2022-08-26T02:45:08;5.53;;;5.03;;
4268;SDS011;2148;48.554;7.834;2022-08-26T02:47:34;6.67;;;5.50;;
4268;SDS011;2148;48.554;7.834;2022-08-26T02:49:59;6.20;;;5.60;;
4268;SDS011;2148;48.554;7.834;2022-08-26T02:52:25;5.80;;;5.30;;
4268;SDS011;2148;48.554;7.834;2022-08-26T02:54:51;7.13;;;5.77;;
4268;SDS011;2148;48.554;7.834;2022-08-26T02:57:16;6.63;;;5.93;;
4268;SDS011;2148;48.554;7.834;2022-08-26T02:59:42;6.27;;;5.67;;
4268;SDS011;2148;48.554;7.834;2022-08-26T03:02:07;5.93;;;5.13;;
4268;SDS011;2148;48.554;7.834;2022-08-26T03:04:34;7.00;;;5.20;;
4268;SDS011;2148;48.554;7.834;2022-08-26T03:06:59;5.87;;;5.23;;
4268;SDS011;2148;48.554;7.834;2022-08-26T03:09:25;5.50;;;5.00;;
4268;SDS011;2148;48.554;7.834;2022-08-26T03:11:50;5.73;;;5.20;;
4268;SDS011;2148;48.554;7.834;2022-08-26T03:14:16;5.80;;;5.20;;
4268;SDS011;2148;48.554;7.834;2022-08-26T03:16:41;7.10;;;6.13;;
4268;SDS011;2148;48.554;7.834;2022-08-26T03:19:07;5.67;;;5.10;;
4268;SDS011;2148;48.554;7.834;2022-08-26T03:21:33;6.77;;;6.17;;
4268;SDS011;2148;48.554;7.834;2022-08-26T03:23:59;6.53;;;5.20;;
4268;SDS011;2148;48.554;7.834;2022-08-26T03:26:25;5.73;;;5.13;;
4268;SDS011;2148;48.554;7.834;2022-08-26T03:28:51;7.73;;;5.60;;
4268;SDS011;2148;48.554;7.834;2022-08-26T03:31:35;5.87;;;5.33;;
4268;SDS011;2148;48.554;7.834;2022-08-26T03:34:00;5.67;;;5.17;;
4268;SDS011;2148;48.554;7.834;2022-08-26T03:36:25;5.90;;;5.10;;
4268;SDS011;2148;48.554;7.834;2022-08-26T03:38:51;5.93;;;4.63;;
4268;SDS011;2148;48.554;7.834;2022-08-26T03:41:16;6.30;;;5.70;;
4268;SDS011;2148;48.554;7.834;2022-08-26T03:43:42;6.27;;;5.17;;
4268;SDS011;2148;48.554;7.834;2022-08-26T03:46:08;5.83;;;5.33;;
4268;SDS011;2148;48.554;7.834;2022-08-26T03:48:35;5.80;;;5.30;;
4268;SDS011;2148;48.554;7.834;2022-08-26T03:51:01;7.87;;;5.43;;
4268;SDS011;2148;48.554;7.834;2022-08-26T03:53:26;8.63;;;5.40;;
4268;SDS011;2148;48.554;7.834;2022-08-26T03:55:52;6.77;;;5.47;;
4268;SDS011;2148;48.554;7.834;2022-08-26T03:58:18;6.67;;;5.27;;
4268;SDS011;2148;48.554;7.834;2022-08-26T04:00:44;6.23;;;5.50;;
4268;SDS011;2148;48.554;7.834;2022-08-26T04:03:09;6.20;;;5.60;;
4268;SDS011;2148;48.554;7.834;2022-08-26T04:05:35;5.60;;;5.10;;
4268;SDS011;2148;48.554;7.834;2022-08-26T04:08:01;6.30;;;5.70;;
4268;SDS011;2148;48.554;7.834;2022-08-26T04:10:27;6.07;;;5.47;;
4268;SDS011;2148;48.554;7.834;2022-08-26T04:12:53;7.27;;;5.67;;
4268;SDS011;2148;48.554;7.834;2022-08-26T04:15:18;5.90;;;5.40;;
4268;SDS011;2148;48.554;7.834;2022-08-26T04:17:45;6.53;;;5.43;;
4268;SDS011;2148;48.554;7.834;2022-08-26T04:20:11;6.73;;;5.33;;
4268;SDS011;2148;48.554;7.834;2022-08-26T04:22:38;6.40;;;5.70;;
4268;SDS011;2148;48.554;7.834;2022-08-26T04:25:05;5.90;;;5.40;;
4268;SDS011;2148;48.554;7.834;2022-08-26T04:27:30;6.10;;;5.57;;
4268;SDS011;2148;48.554;7.834;2022-08-26T04:29:55;7.27;;;5.50;;
4268;SDS011;2148;48.554;7.834;2022-08-26T04:32:21;6.30;;;5.70;;
4268;SDS011;2148;48.554;7.834;2022-08-26T04:34:46;5.63;;;5.13;;
4268;SDS011;2148;48.554;7.834;2022-08-26T04:37:12;6.90;;;6.17;;
4268;SDS011;2148;48.554;7.834;2022-08-26T04:39:37;6.63;;;5.93;;
4268;SDS011;2148;48.554;7.834;2022-08-26T04:42:02;6.67;;;6.07;;
4268;SDS011;2148;48.554;7.834;2022-08-26T04:44:28;7.07;;;5.70;;
4268;SDS011;2148;48.554;7.834;2022-08-26T04:46:54;6.97;;;5.60;;
4268;SDS011;2148;48.554;7.834;2022-08-26T04:49:20;7.07;;;5.57;;
4268;SDS011;2148;48.554;7.834;2022-08-26T04:51:45;7.40;;;5.57;;
4268;SDS011;2148;48.554;7.834;2022-08-26T04:54:12;10.47;;;5.73;;
4268;SDS011;2148;48.554;7.834;2022-08-26T04:56:39;6.20;;;5.60;;
4268;SDS011;2148;48.554;7.834;2022-08-26T04:59:07;6.60;;;5.90;;
4268;SDS011;2148;48.554;7.834;2022-08-26T05:01:35;6.30;;;5.73;;
4268;SDS011;2148;48.554;7.834;2022-08-26T05:04:01;9.40;;;6.03;;
4268;SDS011;2148;48.554;7.834;2022-08-26T05:06:26;6.70;;;6.07;;
4268;SDS011;2148;48.554;7.834;2022-08-26T05:08:52;7.80;;;5.50;;
4268;SDS011;2148;48.554;7.834;2022-08-26T05:11:18;7.67;;;6.00;;
4268;SDS011;2148;48.554;7.834;2022-08-26T05:13:44;7.33;;;5.57;;
4268;SDS011;2148;48.554;7.834;2022-08-26T05:16:10;6.33;;;5.83;;
4268;SDS011;2148;48.554;7.834;2022-08-26T05:18:36;7.23;;;5.90;;
4268;SDS011;2148;48.554;7.834;2022-08-26T05:21:03;8.37;;;5.90;;
4268;SDS011;2148;48.554;7.834;2022-08-26T05:23:29;8.03;;;6.10;;
4268;SDS011;2148;48.554;7.834;2022-08-26T05:25:58;6.73;;;6.13;;
4268;SDS011;2148;48.554;7.834;2022-08-26T05:28:24;7.80;;;6.53;;
4268;SDS011;2148;48.554;7.834;2022-08-26T05:30:50;6.97;;;6.00;;
4268;SDS011;2148;48.554;7.834;2022-08-26T05:33:16;6.00;;;5.40;;
4268;SDS011;2148;48.554;7.834;2022-08-26T05:35:43;8.13;;;5.70;;
4268;SDS011;2148;48.554;7.834;2022-08-26T05:38:11;6.50;;;5.60;;
4268;SDS011;2148;48.554;7.834;2022-08-26T05:40:40;9.17;;;6.00;;
4268;SDS011;2148;48.554;7.834;2022-08-26T05:43:09;6.43;;;5.83;;
4268;SDS011;2148;48.554;7.834;2022-08-26T05:45:39;6.23;;;5.73;;
4268;SDS011;2148;48.554;7.834;2022-08-26T05:48:06;6.40;;;5.80;;
4268;SDS011;2148;48.554;7.834;2022-08-26T05:50:48;6.40;;;5.77;;
4268;SDS011;2148;48.554;7.834;2022-08-26T05:53:16;5.60;;;5.10;;
4268;SDS011;2148;48.554;7.834;2022-08-26T05:55:51;6.57;;;5.90;;
4268;SDS011;2148;48.554;7.834;2022-08-26T05:58:18;6.20;;;5.57;;
4268;SDS011;2148;48.554;7.834;2022-08-26T06:00:45;6.43;;;5.83;;
4268;SDS011;2148;48.554;7.834;2022-08-26T06:03:17;9.13;;;7.17;;
4268;SDS011;2148;48.554;7.834;2022-08-26T06:05:42;9.20;;;8.30;;
4268;SDS011;2148;48.554;7.834;2022-08-26T06:08:07;10.17;;;9.10;;
4268;SDS011;2148;48.554;7.834;2022-08-26T06:10:44;12.17;;;10.47;;
4268;SDS011;2148;48.554;7.834;2022-08-26T06:13:17;13.03;;;10.57;;
4268;SDS011;2148;48.554;7.834;2022-08-26T06:15:45;9.07;;;7.83;;
4268;SDS011;2148;48.554;7.834;2022-08-26T06:18:12;7.60;;;6.10;;
4268;SDS011;2148;48.554;7.834;2022-08-26T06:20:38;6.07;;;5.47;;
4268;SDS011;2148;48.554;7.834;2022-08-26T06:23:08;6.23;;;5.43;;
4268;SDS011;2148;48.554;7.834;2022-08-26T06:25:53;5.77;;;5.27;;
4268;SDS011;2148;48.554;7.834;2022-08-26T06:28:19;8.80;;;5.50;;
4268;SDS011;2148;48.554;7.834;2022-08-26T06:30:44;5.97;;;5.47;;
4268;SDS011;2148;48.554;7.834;2022-08-26T06:33:09;6.67;;;5.27;;
4268;SDS011;2148;48.554;7.834;2022-08-26T06:35:38;7.10;;;5.77;;
4268;SDS011;2148;48.554;7.834;2022-08-26T06:38:05;6.47;;;5.57;;
4268;SDS011;2148;48.554;7.834;2022-08-26T06:40:32;6.13;;;5.53;;
4268;SDS011;2148;48.554;7.834;2022-08-26T06:42:57;7.60;;;6.10;;
4268;SDS011;2148;48.554;7.834;2022-08-26T06:45:23;7.63;;;5.73;;
4268;SDS011;2148;48.554;7.834;2022-08-26T06:47:48;7.63;;;5.30;;
4268;SDS011;2148;48.554;7.834;2022-08-26T06:50:14;6.00;;;5.33;;
4268;SDS011;2148;48.554;7.834;2022-08-26T06:52:42;6.10;;;5.60;;
4268;SDS011;2148;48.554;7.834;2022-08-26T06:55:07;6.50;;;5.73;;
4268;SDS011;2148;48.554;7.834;2022-08-26T06:57:33;8.87;;;5.27;;
4268;SDS011;2148;48.554;7.834;2022-08-26T07:00:02;6.60;;;5.60;;
4268;SDS011;2148;48.554;7.834;2022-08-26T07:02:33;6.90;;;5.70;;
4268;SDS011;2148;48.554;7.834;2022-08-26T07:04:58;6.70;;;4.80;;
4268;SDS011;2148;48.554;7.834;2022-08-26T07:07:24;7.67;;;5.07;;
4268;SDS011;2148;48.554;7.834;2022-08-26T07:09:49;7.43;;;5.37;;
4268;SDS011;2148;48.554;7.834;2022-08-26T07:12:14;5.50;;;4.87;;
4268;SDS011;2148;48.554;7.834;2022-08-26T07:14:40;6.37;;;5.17;;
4268;SDS011;2148;48.554;7.834;2022-08-26T07:17:05;7.37;;;5.40;;
4268;SDS011;2148;48.554;7.834;2022-08-26T07:19:30;6.47;;;5.40;;
4268;SDS011;2148;48.554;7.834;2022-08-26T07:21:56;6.30;;;5.63;;
4268;SDS011;2148;48.554;7.834;2022-08-26T07:24:21;7.97;;;5.57;;
4268;SDS011;2148;48.554;7.834;2022-08-26T07:26:47;7.80;;;5.07;;
4268;SDS011;2148;48.554;7.834;2022-08-26T07:29:12;6.20;;;4.97;;
4268;SDS011;2148;48.554;7.834;2022-08-26T07:31:38;7.60;;;4.93;;
4268;SDS011;2148;48.554;7.834;2022-08-26T07:34:05;5.77;;;5.10;;
4268;SDS011;2148;48.554;7.834;2022-08-26T07:36:31;7.20;;;5.10;;
4268;SDS011;2148;48.554;7.834;2022-08-26T07:38:57;9.07;;;5.27;;
4268;SDS011;2148;48.554;7.834;2022-08-26T07:41:23;6.57;;;5.30;;
4268;SDS011;2148;48.554;7.834;2022-08-26T07:43:49;6.23;;;5.00;;
4268;SDS011;2148;48.554;7.834;2022-08-26T07:46:15;7.23;;;4.80;;
4268;SDS011;2148;48.554;7.834;2022-08-26T07:48:44;6.43;;;5.67;;
4268;SDS011;2148;48.554;7.834;2022-08-26T07:51:11;7.80;;;5.20;;
4268;SDS011;2148;48.554;7.834;2022-08-26T07:53:36;7.43;;;4.93;;
4268;SDS011;2148;48.554;7.834;2022-08-26T07:56:01;7.90;;;5.20;;
4268;SDS011;2148;48.554;7.834;2022-08-26T07:58:27;6.23;;;5.00;;
4268;SDS011;2148;48.554;7.834;2022-08-26T08:00:52;5.90;;;5.27;;
4268;SDS011;2148;48.554;7.834;2022-08-26T08:03:18;7.60;;;4.77;;
4268;SDS011;2148;48.554;7.834;2022-08-26T08:05:44;6.33;;;5.73;;
4268;SDS011;2148;48.554;7.834;2022-08-26T08:08:09;5.83;;;5.27;;
4268;SDS011;2148;48.554;7.834;2022-08-26T08:10:35;6.93;;;5.57;;
4268;SDS011;2148;48.554;7.834;2022-08-26T08:13:02;6.60;;;6.00;;
4268;SDS011;2148;48.554;7.834;2022-08-26T08:15:29;9.10;;;5.47;;
4268;SDS011;2148;48.554;7.834;2022-08-26T08:17:57;5.37;;;4.80;;
4268;SDS011;2148;48.554;7.834;2022-08-26T08:20:22;6.10;;;5.50;;
4268;SDS011;2148;48.554;7.834;2022-08-26T08:22:49;9.73;;;5.80;;
4268;SDS011;2148;48.554;7.834;2022-08-26T08:25:15;7.50;;;4.97;;
4268;SDS011;2148;48.554;7.834;2022-08-26T08:27:41;6.13;;;5.20;;
4268;SDS011;2148;48.554;7.834;2022-08-26T08:30:07;6.77;;;5.87;;
4268;SDS011;2148;48.554;7.834;2022-08-26T08:32:34;6.60;;;5.90;;
4268;SDS011;2148;48.554;7.834;2022-08-26T08:35:02;6.10;;;5.50;;
4268;SDS011;2148;48.554;7.834;2022-08-26T08:37:27;6.87;;;5.83;;
4268;SDS011;2148;48.554;7.834;2022-08-26T08:39:53;6.67;;;5.53;;
4268;SDS011;2148;48.554;7.834;2022-08-26T08:45:04;5.73;;;5.23;;
4268;SDS011;2148;48.554;7.834;2022-08-26T08:47:40;6.00;;;5.10;;
4268;SDS011;2148;48.554;7.834;2022-08-26T08:50:16;7.83;;;5.30;;
4268;SDS011;2148;48.554;7.834;2022-08-26T08:52:48;7.03;;;5.03;;
4268;SDS011;2148;48.554;7.834;2022-08-26T08:55:20;6.90;;;5.67;;
4268;SDS011;2148;48.554;7.834;2022-08-26T09:00:24;7.73;;;5.33;;
4268;SDS011;2148;48.554;7.834;2022-08-26T09:02:58;6.13;;;5.27;;
4268;SDS011;2148;48.554;7.834;2022-08-26T09:05:27;5.73;;;5.13;;
4268;SDS011;2148;48.554;7.834;2022-08-26T09:08:03;7.00;;;4.93;;
4268;SDS011;2148;48.554;7.834;2022-08-26T09:13:01;8.07;;;5.90;;
4268;SDS011;2148;48.554;7.834;2022-08-26T09:15:39;7.07;;;5.33;;
4268;SDS011;2148;48.554;7.834;2022-08-26T09:20:47;6.03;;;5.40;;
4268;SDS011;2148;48.554;7.834;2022-08-26T09:23:16;7.97;;;6.00;;
4268;SDS011;2148;48.554;7.834;2022-08-26T09:25:46;8.83;;;6.10;;
4268;SDS011;2148;48.554;7.834;2022-08-26T09:28:13;8.70;;;5.97;;
4268;SDS011;2148;48.554;7.834;2022-08-26T09:30:45;9.83;;;6.33;;
4268;SDS011;2148;48.554;7.834;2022-08-26T09:33:15;11.17;;;6.70;;
4268;SDS011;2148;48.554;7.834;2022-08-26T09:35:43;11.73;;;6.10;;
4268;SDS011;2148;48.554;7.834;2022-08-26T09:38:22;6.10;;;5.50;;
4268;SDS011;2148;48.554;7.834;2022-08-26T09:40:56;11.13;;;6.10;;
4268;SDS011;2148;48.554;7.834;2022-08-26T09:43:22;9.70;;;6.43;;
4268;SDS011;2148;48.554;7.834;2022-08-26T09:45:48;7.30;;;5.87;;
4268;SDS011;2148;48.554;7.834;2022-08-26T09:53:23;8.63;;;6.40;;
4268;SDS011;2148;48.554;7.834;2022-08-26T09:56:08;10.90;;;6.03;;
4268;SDS011;2148;48.554;7.834;2022-08-26T09:58:37;7.27;;;5.90;;
4268;SDS011;2148;48.554;7.834;2022-08-26T10:01:04;7.00;;;6.07;;
4268;SDS011;2148;48.554;7.834;2022-08-26T10:03:32;7.50;;;5.87;;
4268;SDS011;2148;48.554;7.834;2022-08-26T10:06:03;9.67;;;6.00;;
4268;SDS011;2148;48.554;7.834;2022-08-26T10:08:38;6.60;;;5.33;;
4268;SDS011;2148;48.554;7.834;2022-08-26T10:11:09;6.60;;;5.80;;
4268;SDS011;2148;48.554;7.834;2022-08-26T10:13:41;9.90;;;5.93;;
4268;SDS011;2148;48.554;7.834;2022-08-26T10:16:13;6.30;;;5.47;;
4268;SDS011;2148;48.554;7.834;2022-08-26T10:18:44;6.10;;;5.50;;
4268;SDS011;2148;48.554;7.834;2022-08-26T10:21:16;5.50;;;5.07;;
4268;SDS011;2148;48.554;7.834;2022-08-26T10:23:48;7.37;;;5.63;;
4268;SDS011;2148;48.554;7.834;2022-08-26T10:26:17;9.67;;;6.20;;
4268;SDS011;2148;48.554;7.834;2022-08-26T10:28:49;6.40;;;5.73;;
4268;SDS011;2148;48.554;7.834;2022-08-26T10:31:22;10.30;;;5.63;;
4268;SDS011;2148;48.554;7.834;2022-08-26T10:33:50;6.30;;;5.63;;
4268;SDS011;2148;48.554;7.834;2022-08-26T10:36:17;7.87;;;5.60;;
4268;SDS011;2148;48.554;7.834;2022-08-26T10:39:03;6.53;;;5.40;;
4268;SDS011;2148;48.554;7.834;2022-08-26T10:41:32;9.57;;;6.17;;
4268;SDS011;2148;48.554;7.834;2022-08-26T10:44:00;6.33;;;5.63;;
4268;SDS011;2148;48.554;7.834;2022-08-26T10:46:28;10.80;;;5.97;;
4268;SDS011;2148;48.554;7.834;2022-08-26T10:49:14;7.25;;;4.82;;
4268;SDS011;2148;48.554;7.834;2022-08-26T10:51:46;8.10;;;5.63;;
4268;SDS011;2148;48.554;7.834;2022-08-26T10:54:16;11.10;;;5.55;;
4268;SDS011;2148;48.554;7.834;2022-08-26T10:59:46;10.30;;;5.43;;
4268;SDS011;2148;48.554;7.834;2022-08-26T11:02:31;6.53;;;5.43;;
4268;SDS011;2148;48.554;7.834;2022-08-26T11:05:03;6.00;;;5.40;;
4268;SDS011;2148;48.554;7.834;2022-08-26T11:10:04;6.20;;;5.18;;
4268;SDS011;2148;48.554;7.834;2022-08-26T11:15:04;5.65;;;5.15;;
4268;SDS011;2148;48.554;7.834;2022-08-26T11:20:08;8.25;;;5.00;;
4268;SDS011;2148;48.554;7.834;2022-08-26T11:22:34;6.45;;;5.45;;
4268;SDS011;2148;48.554;7.834;2022-08-26T11:37:36;5.70;;;4.93;;
4268;SDS011;2148;48.554;7.834;2022-08-26T11:40:28;6.78;;;5.13;;
4268;SDS011;2148;48.554;7.834;2022-08-26T11:42:57;5.82;;;4.95;;
4268;SDS011;2148;48.554;7.834;2022-08-26T11:47:50;7.97;;;5.15;;
4268;SDS011;2148;48.554;7.834;2022-08-26T11:50:17;5.45;;;4.68;;
4268;SDS011;2148;48.554;7.834;2022-08-26T11:52:59;5.43;;;4.30;;
4268;SDS011;2148;48.554;7.834;2022-08-26T11:55:29;5.28;;;4.78;;
4268;SDS011;2148;48.554;7.834;2022-08-26T11:57:55;5.25;;;4.80;;
4268;SDS011;2148;48.554;7.834;2022-08-26T12:00:28;7.10;;;5.15;;
4268;SDS011;2148;48.554;7.834;2022-08-26T12:03:18;6.50;;;4.53;;
4268;SDS011;2148;48.554;7.834;2022-08-26T12:05:49;7.70;;;5.18;;
4268;SDS011;2148;48.554;7.834;2022-08-26T12:08:17;6.30;;;4.85;;
4268;SDS011;2148;48.554;7.834;2022-08-26T12:10:45;8.98;;;5.03;;
4268;SDS011;2148;48.554;7.834;2022-08-26T12:13:18;4.65;;;4.25;;
4268;SDS011;2148;48.554;7.834;2022-08-26T12:15:55;5.88;;;5.38;;
4268;SDS011;2148;48.554;7.834;2022-08-26T12:18:24;5.18;;;4.65;;
4268;SDS011;2148;48.554;7.834;2022-08-26T12:20:51;4.95;;;4.45;;
4268;SDS011;2148;48.554;7.834;2022-08-26T12:23:20;5.47;;;4.82;;
4268;SDS011;2148;48.554;7.834;2022-08-26T12:25:51;7.15;;;5.18;;
4268;SDS011;2148;48.554;7.834;2022-08-26T12:28:18;5.03;;;4.50;;
4268;SDS011;2148;48.554;7.834;2022-08-26T12:30:58;5.43;;;4.72;;
4268;SDS011;2148;48.554;7.834;2022-08-26T12:33:27;10.70;;;5.03;;
4268;SDS011;2148;48.554;7.834;2022-08-26T12:35:53;7.15;;;5.57;;
4268;SDS011;2148;48.554;7.834;2022-08-26T12:38:19;6.05;;;5.55;;
4268;SDS011;2148;48.554;7.834;2022-08-26T12:40:45;7.32;;;5.43;;
4268;SDS011;2148;48.554;7.834;2022-08-26T12:43:12;6.00;;;5.40;;
4268;SDS011;2148;48.554;7.834;2022-08-26T12:45:54;6.57;;;5.90;;
4268;SDS011;2148;48.554;7.834;2022-08-26T12:48:22;5.53;;;5.03;;
4268;SDS011;2148;48.554;7.834;2022-08-26T12:50:50;6.00;;;4.90;;
4268;SDS011;2148;48.554;7.834;2022-08-26T12:53:18;5.60;;;5.10;;
4268;SDS011;2148;48.554;7.834;2022-08-26T12:55:47;6.97;;;5.82;;
4268;SDS011;2148;48.554;7.834;2022-08-26T13:08:48;6.22;;;5.63;;
4268;SDS011;2148;48.554;7.834;2022-08-26T13:11:31;8.35;;;5.65;;
4268;SDS011;2148;48.554;7.834;2022-08-26T13:14:00;7.25;;;5.85;;
4268;SDS011;2148;48.554;7.834;2022-08-26T13:16:36;6.35;;;5.65;;
4268;SDS011;2148;48.554;7.834;2022-08-26T13:19:03;7.07;;;6.38;;
4268;SDS011;2148;48.554;7.834;2022-08-26T13:21:31;10.77;;;6.20;;
4268;SDS011;2148;48.554;7.834;2022-08-26T13:24:04;8.88;;;6.70;;
4268;SDS011;2148;48.554;7.834;2022-08-26T13:26:30;6.25;;;5.75;;
4268;SDS011;2148;48.554;7.834;2022-08-26T13:28:56;7.28;;;6.15;;
4268;SDS011;2148;48.554;7.834;2022-08-26T13:31:21;6.25;;;5.50;;
4268;SDS011;2148;48.554;7.834;2022-08-26T13:33:46;7.47;;;6.25;;
4268;SDS011;2148;48.554;7.834;2022-08-26T13:36:12;7.93;;;7.05;;
4268;SDS011;2148;48.554;7.834;2022-08-26T13:38:38;8.25;;;6.53;;
4268;SDS011;2148;48.554;7.834;2022-08-26T13:41:03;7.47;;;6.57;;
4268;SDS011;2148;48.554;7.834;2022-08-26T13:43:29;8.45;;;7.28;;
4268;SDS011;2148;48.554;7.834;2022-08-26T13:45:55;8.85;;;7.82;;
4268;SDS011;2148;48.554;7.834;2022-08-26T13:48:21;8.90;;;8.00;;
4268;SDS011;2148;48.554;7.834;2022-08-26T13:50:46;8.88;;;7.88;;
4268;SDS011;2148;48.554;7.834;2022-08-26T13:53:12;10.23;;;8.68;;
4268;SDS011;2148;48.554;7.834;2022-08-26T13:55:38;9.30;;;8.38;;
4268;SDS011;2148;48.554;7.834;2022-08-26T13:58:04;10.20;;;8.97;;
4268;SDS011;2148;48.554;7.834;2022-08-26T14:00:29;9.73;;;8.83;;
4268;SDS011;2148;48.554;7.834;2022-08-26T14:02:56;9.48;;;8.68;;
4268;SDS011;2148;48.554;7.834;2022-08-26T14:05:21;10.82;;;9.48;;
4268;SDS011;2148;48.554;7.834;2022-08-26T14:07:47;10.70;;;8.87;;
4268;SDS011;2148;48.554;7.834;2022-08-26T14:10:12;10.40;;;9.30;;
4268;SDS011;2148;48.554;7.834;2022-08-26T14:12:38;10.57;;;9.50;;
4268;SDS011;2148;48.554;7.834;2022-08-26T14:15:03;10.83;;;8.80;;
4268;SDS011;2148;48.554;7.834;2022-08-26T14:17:29;9.77;;;8.77;;
4268;SDS011;2148;48.554;7.834;2022-08-26T14:19:56;11.03;;;8.47;;
4268;SDS011;2148;48.554;7.834;2022-08-26T14:22:22;11.60;;;9.00;;
4268;SDS011;2148;48.554;7.834;2022-08-26T14:24:47;9.10;;;8.27;;
4268;SDS011;2148;48.554;7.834;2022-08-26T14:27:12;11.67;;;8.87;;
4268;SDS011;2148;48.554;7.834;2022-08-26T14:29:38;9.27;;;8.30;;
4268;SDS011;2148;48.554;7.834;2022-08-26T14:32:05;9.60;;;8.60;;
4268;SDS011;2148;48.554;7.834;2022-08-26T14:34:35;10.23;;;8.90;;
4268;SDS011;2148;48.554;7.834;2022-08-26T14:37:01;9.97;;;8.80;;
4268;SDS011;2148;48.554;7.834;2022-08-26T14:39:26;10.90;;;8.17;;
4268;SDS011;2148;48.554;7.834;2022-08-26T14:41:53;11.03;;;8.43;;
4268;SDS011;2148;48.554;7.834;2022-08-26T14:44:19;9.20;;;8.27;;
4268;SDS011;2148;48.554;7.834;2022-08-26T14:46:46;8.93;;;8.03;;
4268;SDS011;2148;48.554;7.834;2022-08-26T14:49:13;10.67;;;8.00;;
4268;SDS011;2148;48.554;7.834;2022-08-26T14:51:39;9.43;;;7.93;;
4268;SDS011;2148;48.554;7.834;2022-08-26T14:54:05;9.10;;;8.20;;
4268;SDS011;2148;48.554;7.834;2022-08-26T14:56:47;10.17;;;8.23;;
4268;SDS011;2148;48.554;7.834;2022-08-26T14:59:26;8.83;;;7.93;;
4268;SDS011;2148;48.554;7.834;2022-08-26T15:01:53;10.47;;;8.23;;
4268;SDS011;2148;48.554;7.834;2022-08-26T15:04:19;9.97;;;7.90;;
4268;SDS011;2148;48.554;7.834;2022-08-26T15:06:44;10.00;;;7.97;;
4268;SDS011;2148;48.554;7.834;2022-08-26T15:09:10;8.93;;;8.02;;
4268;SDS011;2148;48.554;7.834;2022-08-26T15:11:35;9.43;;;8.17;;
4268;SDS011;2148;48.554;7.834;2022-08-26T15:14:01;8.93;;;8.17;;
4268;SDS011;2148;48.554;7.834;2022-08-26T15:16:26;9.60;;;8.23;;
4268;SDS011;2148;48.554;7.834;2022-08-26T15:18:52;8.47;;;7.67;;
4268;SDS011;2148;48.554;7.834;2022-08-26T15:21:18;9.17;;;8.27;;
4268;SDS011;2148;48.554;7.834;2022-08-26T15:23:44;9.57;;;8.40;;
4268;SDS011;2148;48.554;7.834;2022-08-26T15:26:10;9.10;;;8.20;;
4268;SDS011;2148;48.554;7.834;2022-08-26T15:28:36;8.90;;;8.00;;
4268;SDS011;2148;48.554;7.834;2022-08-26T15:31:02;9.40;;;8.60;;
4268;SDS011;2148;48.554;7.834;2022-08-26T15:33:28;9.60;;;8.60;;
4268;SDS011;2148;48.554;7.834;2022-08-26T15:35:53;8.63;;;7.83;;
4268;SDS011;2148;48.554;7.834;2022-08-26T15:38:19;9.10;;;8.30;;
4268;SDS011;2148;48.554;7.834;2022-08-26T15:40:45;11.87;;;9.10;;
4268;SDS011;2148;48.554;7.834;2022-08-26T15:43:10;9.30;;;8.30;;
4268;SDS011;2148;48.554;7.834;2022-08-26T15:45:36;8.67;;;7.77;;
4268;SDS011;2148;48.554;7.834;2022-08-26T15:48:01;9.10;;;8.37;;
4268;SDS011;2148;48.554;7.834;2022-08-26T15:50:27;13.43;;;8.80;;
4268;SDS011;2148;48.554;7.834;2022-08-26T15:52:53;9.57;;;8.50;;
4268;SDS011;2148;48.554;7.834;2022-08-26T15:55:18;9.87;;;8.13;;
4268;SDS011;2148;48.554;7.834;2022-08-26T15:57:44;9.80;;;7.97;;
4268;SDS011;2148;48.554;7.834;2022-08-26T16:00:10;8.93;;;8.13;;
4268;SDS011;2148;48.554;7.834;2022-08-26T16:02:35;10.40;;;7.68;;
4268;SDS011;2148;48.554;7.834;2022-08-26T16:05:01;10.50;;;8.43;;
4268;SDS011;2148;48.554;7.834;2022-08-26T16:07:26;8.87;;;8.00;;
4268;SDS011;2148;48.554;7.834;2022-08-26T16:09:51;9.53;;;8.13;;
4268;SDS011;2148;48.554;7.834;2022-08-26T16:12:18;9.53;;;7.90;;